createdAt,value
2023-03-02T00:01:02.535Z,46.70
2023-03-02T00:03:33.286Z,46.90
2023-03-02T00:06:01.758Z,47.03
2023-03-02T00:08:29.756Z,46.77
2023-03-02T00:10:58.476Z,46.90
2023-03-02T00:13:26.295Z,46.87
2023-03-02T00:15:54.132Z,46.90
2023-03-02T00:18:23.312Z,46.77
2023-03-02T00:20:51.096Z,47.03
2023-03-02T00:23:19.031Z,46.90
2023-03-02T00:25:46.863Z,46.73
2023-03-02T00:28:14.666Z,46.90
2023-03-02T00:30:42.488Z,46.60
2023-03-02T00:33:10.370Z,46.60
2023-03-02T00:35:40.538Z,47.10
2023-03-02T00:38:09.016Z,46.77
2023-03-02T00:40:37.501Z,46.77
2023-03-02T00:43:05.360Z,47.20
2023-03-02T00:45:33.132Z,46.90
2023-03-02T00:48:00.985Z,46.70
2023-03-02T00:50:28.847Z,46.90
2023-03-02T00:52:58.047Z,46.77
2023-03-02T00:55:25.903Z,46.83
2023-03-02T00:57:55.733Z,46.97
2023-03-02T01:00:29.334Z,46.67
2023-03-02T01:03:01.390Z,46.90
2023-03-02T01:05:29.310Z,46.90
2023-03-02T01:07:58.506Z,46.63
2023-03-02T01:10:26.303Z,46.57
2023-03-02T01:12:54.084Z,46.83
2023-03-02T01:15:22.046Z,46.70
2023-03-02T01:17:49.858Z,46.57
2023-03-02T01:20:18.713Z,46.67
2023-03-02T01:22:46.644Z,46.47
2023-03-02T01:25:16.179Z,46.53
2023-03-02T01:27:44.081Z,47.00
2023-03-02T01:30:13.271Z,47.13
2023-03-02T01:32:41.145Z,46.77
2023-03-02T01:35:09.807Z,47.03
2023-03-02T01:37:37.631Z,46.93
2023-03-02T01:40:06.661Z,47.07
2023-03-02T01:42:39.803Z,46.70
2023-03-02T01:45:45.382Z,46.57
2023-03-02T01:48:20.210Z,46.73
2023-03-02T01:50:48.915Z,46.67
2023-03-02T01:53:18.019Z,46.90
2023-03-02T01:55:47.094Z,46.77
2023-03-02T01:58:18.286Z,46.40
2023-03-02T02:00:46.752Z,46.27
2023-03-02T02:03:21.864Z,46.73
2023-03-02T02:05:58.064Z,46.87
2023-03-02T02:08:26.310Z,46.60
2023-03-02T02:10:55.392Z,46.87
2023-03-02T02:13:23.207Z,46.53
2023-03-02T02:15:51.282Z,46.97
2023-03-02T02:18:20.649Z,46.63
2023-03-02T02:20:50.300Z,46.90
2023-03-02T02:23:27.084Z,46.77
2023-03-02T02:26:19.652Z,46.70
2023-03-02T02:28:57.838Z,46.80
2023-03-02T02:31:34.545Z,46.77
2023-03-02T02:34:08.247Z,46.83
2023-03-02T02:36:41.531Z,47.03
2023-03-02T02:39:19.944Z,46.90
2023-03-02T02:41:52.275Z,46.80
2023-03-02T02:44:21.118Z,46.80
2023-03-02T02:46:49.071Z,46.53
2023-03-02T02:49:28.044Z,46.70
2023-03-02T02:51:56.258Z,46.67
2023-03-02T02:54:24.707Z,46.97
2023-03-02T02:56:55.083Z,46.80
2023-03-02T02:59:26.800Z,46.90
2023-03-02T03:01:54.808Z,46.50
2023-03-02T03:04:26.554Z,46.60
2023-03-02T03:06:56.321Z,46.77
2023-03-02T03:09:25.174Z,46.53
2023-03-02T03:11:56.600Z,47.10
2023-03-02T03:14:30.300Z,46.97
2023-03-02T03:16:58.525Z,46.77
2023-03-02T03:19:28.628Z,46.23
2023-03-02T03:21:59.558Z,46.57
2023-03-02T03:24:31.432Z,46.77
2023-03-02T03:27:05.177Z,46.80
2023-03-02T03:29:36.202Z,46.60
2023-03-02T03:32:06.954Z,46.97
2023-03-02T03:34:40.400Z,46.63
2023-03-02T03:37:14.919Z,46.73
2023-03-02T03:39:43.762Z,46.33
2023-03-02T03:42:13.319Z,46.40
2023-03-02T03:44:41.277Z,46.73
2023-03-02T03:47:09.364Z,46.93
2023-03-02T03:49:37.324Z,46.63
2023-03-02T03:52:06.914Z,46.50
2023-03-02T03:54:34.920Z,46.47
2023-03-02T03:57:02.951Z,46.70
2023-03-02T03:59:33.998Z,46.87
2023-03-02T04:02:03.914Z,46.80
2023-03-02T04:04:36.944Z,47.07
2023-03-02T04:07:09.960Z,46.50
2023-03-02T04:09:39.172Z,46.63
2023-03-02T04:12:09.984Z,46.97
2023-03-02T04:14:41.082Z,46.43
2023-03-02T04:17:08.918Z,46.60
2023-03-02T04:19:41.272Z,46.43
2023-03-02T04:22:10.648Z,46.80
2023-03-02T04:24:38.586Z,46.77
2023-03-02T04:27:06.426Z,46.70
2023-03-02T04:29:36.531Z,46.80
2023-03-02T04:32:08.633Z,46.53
2023-03-02T04:34:38.991Z,46.37
2023-03-02T04:37:06.963Z,46.50
2023-03-02T04:39:34.815Z,46.63
2023-03-02T04:42:02.781Z,46.87
2023-03-02T04:44:30.602Z,46.57
2023-03-02T04:46:58.468Z,46.50
2023-03-02T04:49:27.662Z,46.73
2023-03-02T04:51:55.486Z,46.87
2023-03-02T04:54:25.510Z,46.37
2023-03-02T04:56:54.047Z,46.77
2023-03-02T04:59:25.881Z,46.47
2023-03-02T05:01:54.239Z,46.73
2023-03-02T05:04:22.509Z,46.60
2023-03-02T05:06:51.686Z,46.73
2023-03-02T05:09:20.095Z,46.90
2023-03-02T05:11:47.874Z,46.80
2023-03-02T05:14:15.666Z,46.43
2023-03-02T05:16:43.665Z,46.43
2023-03-02T05:19:13.271Z,46.10
2023-03-02T05:21:41.353Z,46.50
2023-03-02T05:24:10.704Z,46.97
2023-03-02T05:26:38.702Z,46.77
2023-03-02T05:29:06.605Z,46.47
2023-03-02T05:31:38.263Z,46.47
2023-03-02T05:34:07.794Z,46.73
2023-03-02T05:36:36.656Z,46.90
2023-03-02T05:39:05.714Z,46.37
2023-03-02T05:41:35.629Z,46.63
2023-03-02T05:44:03.577Z,46.33
2023-03-02T05:46:31.879Z,46.63
2023-03-02T05:48:59.803Z,46.40
2023-03-02T05:51:28.373Z,46.77
2023-03-02T05:53:56.137Z,46.77
2023-03-02T05:56:23.947Z,46.67
2023-03-02T05:58:53.083Z,46.77
2023-03-02T06:01:21.055Z,47.23
2023-03-02T06:03:48.864Z,47.27
2023-03-02T06:06:16.729Z,47.13
2023-03-02T06:08:45.200Z,46.67
2023-03-02T06:11:13.566Z,46.90
2023-03-02T06:13:41.791Z,46.73
2023-03-02T06:16:11.080Z,47.00
2023-03-02T06:18:41.389Z,46.80
2023-03-02T06:21:09.882Z,46.80
2023-03-02T06:23:37.744Z,46.80
2023-03-02T06:26:09.222Z,46.40
2023-03-02T06:28:49.807Z,47.03
2023-03-02T06:31:20.528Z,46.93
2023-03-02T06:33:48.439Z,46.93
2023-03-02T06:36:17.042Z,46.83
2023-03-02T06:38:44.987Z,47.57
2023-03-02T06:41:12.792Z,46.93
2023-03-02T06:43:40.590Z,47.03
2023-03-02T06:46:08.578Z,47.17
2023-03-02T06:48:37.807Z,47.43
2023-03-02T06:51:07.603Z,46.93
2023-03-02T06:53:35.414Z,46.90
2023-03-02T06:56:03.297Z,46.80
2023-03-02T06:58:31.089Z,47.10
2023-03-02T07:00:58.962Z,47.27
2023-03-02T07:03:26.846Z,47.13
2023-03-02T07:05:56.022Z,47.33
2023-03-02T07:08:23.924Z,47.07
2023-03-02T07:10:51.855Z,47.03
2023-03-02T07:13:19.730Z,47.33
2023-03-02T07:15:47.557Z,47.13
2023-03-02T07:18:15.461Z,47.00
2023-03-02T07:20:43.256Z,47.37
2023-03-02T07:23:12.392Z,47.13
2023-03-02T07:25:40.216Z,47.23
2023-03-02T07:28:08.043Z,47.37
2023-03-02T07:30:35.843Z,46.93
2023-03-02T07:33:03.684Z,47.40
2023-03-02T07:35:31.510Z,47.00
2023-03-02T07:37:59.309Z,47.20
2023-03-02T07:40:28.941Z,47.20
2023-03-02T07:42:56.752Z,47.07
2023-03-02T07:45:25.592Z,47.53
2023-03-02T07:47:53.418Z,47.60
2023-03-02T07:50:21.272Z,47.67
2023-03-02T07:52:49.131Z,48.13
2023-03-02T07:55:17.119Z,49.70
2023-03-02T07:57:46.282Z,49.67
2023-03-02T08:00:15.445Z,49.37
2023-03-02T08:02:44.051Z,49.50
2023-03-02T08:05:12.699Z,49.17
2023-03-02T08:07:40.872Z,49.23
2023-03-02T08:10:09.503Z,49.23
2023-03-02T08:12:37.397Z,49.43
2023-03-02T08:15:07.870Z,49.17
2023-03-02T08:17:35.698Z,49.37
2023-03-02T08:20:04.305Z,49.53
2023-03-02T08:22:32.123Z,49.57
2023-03-02T08:24:59.941Z,49.50
2023-03-02T08:27:27.741Z,49.53
2023-03-02T08:29:56.857Z,49.67
2023-03-02T08:32:26.131Z,49.80
2023-03-02T08:34:54.003Z,49.33
2023-03-02T08:37:21.787Z,49.53
2023-03-02T08:39:49.641Z,49.47
2023-03-02T08:42:17.743Z,49.47
2023-03-02T08:44:45.543Z,49.70
2023-03-02T08:47:13.345Z,49.63
2023-03-02T08:49:42.732Z,49.67
2023-03-02T08:52:10.625Z,49.47
2023-03-02T08:54:40.501Z,49.30
2023-03-02T08:57:11.652Z,49.47
2023-03-02T08:59:39.528Z,49.77
2023-03-02T09:02:07.938Z,49.77
2023-03-02T09:04:35.831Z,49.67
2023-03-02T09:07:05.099Z,49.70
2023-03-02T09:09:32.935Z,49.73
2023-03-02T09:12:01.766Z,49.77
2023-03-02T09:14:29.621Z,50.10
2023-03-02T09:16:57.542Z,49.87
2023-03-02T09:19:25.421Z,49.87
2023-03-02T09:21:53.273Z,49.97
2023-03-02T09:24:22.386Z,50.00
2023-03-02T09:26:50.461Z,49.87
2023-03-02T09:29:18.270Z,50.13
2023-03-02T09:31:46.091Z,49.97
2023-03-02T09:34:13.932Z,49.97
2023-03-02T09:36:41.742Z,49.63
2023-03-02T09:39:12.160Z,49.97
2023-03-02T09:42:10.462Z,49.93
2023-03-02T09:45:00.958Z,50.10
2023-03-02T09:47:37.158Z,49.97
2023-03-02T09:50:17.626Z,50.07
2023-03-02T09:52:51.705Z,49.63
2023-03-02T09:55:23.356Z,50.17
2023-03-02T09:57:53.817Z,50.07
2023-03-02T10:00:28.994Z,49.77
2023-03-02T10:03:11.335Z,49.83
2023-03-02T10:05:46.130Z,50.17
2023-03-02T10:08:15.815Z,50.27
2023-03-02T10:10:46.748Z,49.90
2023-03-02T10:13:24.080Z,50.17
2023-03-02T10:16:02.130Z,50.10
2023-03-02T10:18:35.150Z,50.10
2023-03-02T10:21:09.380Z,50.00
2023-03-02T10:23:47.547Z,49.73
2023-03-02T10:26:23.956Z,49.90
2023-03-02T10:28:58.917Z,50.10
2023-03-02T10:31:30.312Z,49.90
2023-03-02T10:33:59.051Z,50.03
2023-03-02T10:36:28.686Z,50.33
2023-03-02T10:39:00.310Z,50.00
2023-03-02T10:41:32.715Z,49.83
2023-03-02T10:44:07.213Z,49.97
2023-03-02T10:46:42.223Z,50.13
2023-03-02T10:49:27.033Z,50.17
2023-03-02T10:52:02.640Z,49.77
2023-03-02T10:54:32.560Z,49.93
2023-03-02T10:57:02.198Z,49.77
2023-03-02T10:59:43.141Z,50.07
2023-03-02T11:02:22.769Z,50.10
2023-03-02T11:04:57.245Z,49.93
2023-03-02T11:07:27.318Z,49.90
2023-03-02T11:10:03.428Z,49.83
2023-03-02T11:12:32.365Z,50.17
2023-03-02T11:15:18.548Z,50.07
2023-03-02T11:17:48.985Z,50.03
2023-03-02T11:20:27.547Z,49.90
2023-03-02T11:23:04.689Z,49.93
2023-03-02T11:25:37.727Z,49.20
2023-03-02T11:28:13.469Z,48.77
2023-03-02T11:30:48.001Z,48.33
2023-03-02T11:33:22.273Z,48.07
2023-03-02T11:35:55.318Z,47.90
2023-03-02T11:38:27.339Z,47.77
2023-03-02T11:40:58.696Z,47.80
2023-03-02T11:43:26.671Z,47.60
2023-03-02T11:46:00.056Z,47.47
2023-03-02T11:48:32.422Z,47.40
2023-03-02T11:51:02.424Z,47.60
2023-03-02T11:53:37.613Z,47.57
2023-03-02T11:56:05.930Z,47.40
2023-03-02T11:58:35.057Z,47.40
2023-03-02T12:01:10.933Z,47.00
2023-03-02T12:03:41.663Z,47.30
2023-03-02T12:06:27.223Z,46.77
2023-03-02T12:09:07.332Z,47.17
2023-03-02T12:11:39.424Z,47.10
2023-03-02T12:14:27.523Z,47.13
2023-03-02T12:17:08.333Z,47.00
2023-03-02T12:19:45.081Z,47.03
2023-03-02T12:22:14.699Z,47.00
2023-03-02T12:24:44.503Z,47.13
2023-03-02T12:27:26.351Z,46.83
2023-03-02T12:30:09.533Z,46.63
2023-03-02T12:32:38.943Z,46.90
2023-03-02T12:35:13.603Z,46.93
2023-03-02T12:37:47.998Z,47.00
2023-03-02T12:40:30.462Z,46.93
2023-03-02T12:43:19.835Z,47.10
2023-03-02T12:46:18.508Z,46.80
2023-03-02T12:48:51.801Z,46.80
2023-03-02T12:51:22.655Z,47.07
2023-03-02T12:53:51.096Z,46.67
2023-03-02T12:56:25.550Z,46.70
2023-03-02T12:58:54.566Z,46.63
2023-03-02T13:01:25.790Z,46.93
2023-03-02T13:03:55.744Z,46.77
2023-03-02T13:06:25.648Z,46.57
2023-03-02T13:08:56.772Z,46.73
2023-03-02T13:11:28.906Z,46.73
2023-03-02T13:13:56.792Z,46.63
2023-03-02T13:16:27.195Z,46.70
2023-03-02T13:18:59.288Z,46.57
2023-03-02T13:21:32.401Z,46.70
2023-03-02T13:24:00.730Z,46.53
2023-03-02T13:26:30.899Z,46.70
2023-03-02T13:29:03.629Z,46.80
2023-03-02T13:31:31.900Z,46.83
2023-03-02T13:34:01.738Z,46.70
2023-03-02T13:36:35.309Z,46.50
2023-03-02T13:39:04.261Z,46.90
2023-03-02T13:41:33.531Z,46.60
2023-03-02T13:44:16.770Z,46.77
2023-03-02T13:46:44.611Z,46.80
2023-03-02T13:49:14.284Z,46.33
2023-03-02T13:51:44.791Z,46.60
2023-03-02T13:54:20.955Z,46.67
2023-03-02T13:56:50.977Z,46.80
2023-03-02T13:59:20.744Z,46.73
2023-03-02T14:01:49.052Z,46.60
2023-03-02T14:04:21.523Z,46.57
2023-03-02T14:06:49.987Z,46.77
2023-03-02T14:09:17.923Z,46.77
2023-03-02T14:11:48.790Z,46.47
2023-03-02T14:14:19.900Z,46.57
2023-03-02T14:16:48.852Z,46.80
2023-03-02T14:19:18.368Z,46.77
2023-03-02T14:21:47.320Z,46.70
2023-03-02T14:24:15.378Z,46.80
2023-03-02T14:26:45.549Z,46.70
2023-03-02T14:29:22.316Z,46.53
2023-03-02T14:31:50.279Z,46.43
2023-03-02T14:34:19.641Z,46.20
2023-03-02T14:36:50.313Z,46.43
2023-03-02T14:39:22.680Z,46.60
2023-03-02T14:41:54.039Z,46.50
2023-03-02T14:44:22.401Z,46.40
2023-03-02T14:46:50.267Z,46.50
2023-03-02T14:49:19.690Z,46.60
2023-03-02T14:51:56.486Z,46.57
2023-03-02T14:54:24.565Z,46.47
2023-03-02T14:56:53.347Z,46.60
2023-03-02T14:59:21.205Z,47.27
2023-03-02T15:01:49.177Z,47.70
2023-03-02T15:04:17.024Z,48.07
2023-03-02T15:06:47.464Z,48.17
2023-03-02T15:09:15.449Z,48.10
2023-03-02T15:11:43.406Z,48.47
2023-03-02T15:14:11.220Z,48.87
2023-03-02T15:16:39.043Z,48.73
2023-03-02T15:19:06.837Z,48.83
2023-03-02T15:21:34.911Z,49.20
2023-03-02T15:24:04.550Z,48.97
2023-03-02T15:26:32.367Z,48.90
2023-03-02T15:29:00.284Z,48.97
2023-03-02T15:31:28.516Z,48.73
2023-03-02T15:33:56.505Z,48.93
2023-03-02T15:36:25.580Z,48.83
2023-03-02T15:38:53.732Z,49.03
2023-03-02T15:41:23.068Z,49.07
2023-03-02T15:43:52.056Z,49.33
2023-03-02T15:46:20.216Z,49.17
2023-03-02T15:48:48.432Z,49.17
2023-03-02T15:51:16.228Z,49.20
2023-03-02T15:53:44.204Z,49.40
2023-03-02T15:56:15.792Z,49.17
2023-03-02T15:58:48.840Z,49.23
2023-03-02T16:01:17.148Z,49.37
2023-03-02T16:03:46.235Z,49.17
2023-03-02T16:06:15.551Z,49.33
2023-03-02T16:08:43.418Z,49.10
2023-03-02T16:11:11.640Z,49.37
2023-03-02T16:13:39.643Z,49.37
2023-03-02T16:16:10.258Z,49.27
2023-03-02T16:18:38.076Z,49.30
2023-03-02T16:21:06.084Z,49.57
2023-03-02T16:23:33.905Z,49.50
2023-03-02T16:26:08.353Z,49.40
2023-03-02T16:28:36.532Z,49.60
2023-03-02T16:31:05.573Z,49.23
2023-03-02T16:33:35.019Z,49.23
2023-03-02T16:36:02.857Z,49.53
2023-03-02T16:38:30.834Z,49.60
2023-03-02T16:40:58.702Z,49.37
2023-03-02T16:43:26.839Z,49.27
2023-03-02T16:45:54.761Z,49.33
2023-03-02T16:48:22.777Z,49.30
2023-03-02T16:50:57.248Z,49.37
2023-03-02T16:53:25.806Z,49.60
2023-03-02T16:55:53.662Z,49.20
2023-03-02T16:58:21.428Z,49.57
2023-03-02T17:00:49.275Z,49.37
2023-03-02T17:03:17.111Z,49.10
2023-03-02T17:05:45.256Z,49.20
2023-03-02T17:08:15.855Z,49.43
2023-03-02T17:10:43.988Z,49.30
2023-03-02T17:13:15.261Z,49.43
2023-03-02T17:15:43.602Z,49.53
2023-03-02T17:18:12.042Z,49.37
2023-03-02T17:20:39.981Z,49.13
2023-03-02T17:23:08.067Z,49.17
2023-03-02T17:25:37.200Z,49.23
2023-03-02T17:28:05.369Z,49.17
2023-03-02T17:30:33.425Z,49.13
2023-03-02T17:33:01.242Z,49.00
2023-03-02T17:35:29.111Z,49.37
2023-03-02T17:37:57.059Z,49.37
2023-03-02T17:40:24.897Z,49.17
2023-03-02T17:42:56.192Z,49.60
2023-03-02T17:45:28.256Z,49.33
2023-03-02T17:47:57.307Z,49.57
2023-03-02T17:50:25.568Z,49.23
2023-03-02T17:52:53.978Z,49.37
2023-03-02T17:55:21.868Z,49.30
2023-03-02T17:57:49.907Z,49.50
2023-03-02T18:00:21.611Z,49.60
2023-03-02T18:02:50.176Z,49.33
2023-03-02T18:05:18.118Z,49.43
2023-03-02T18:07:46.100Z,49.33
2023-03-02T18:10:14.525Z,49.43
2023-03-02T18:12:42.282Z,49.20
2023-03-02T18:15:11.816Z,49.57
2023-03-02T18:17:40.982Z,49.50
2023-03-02T18:20:09.947Z,49.27
2023-03-02T18:22:37.788Z,49.40
2023-03-02T18:25:06.485Z,49.23
2023-03-02T18:27:34.371Z,49.30
2023-03-02T18:30:02.221Z,49.23
2023-03-02T18:32:30.064Z,49.37
2023-03-02T18:34:59.390Z,49.23
2023-03-02T18:37:27.248Z,49.30
2023-03-02T18:39:55.076Z,49.17
2023-03-02T18:42:23.018Z,49.47
2023-03-02T18:44:50.812Z,49.47
2023-03-02T18:47:19.327Z,49.33
2023-03-02T18:49:47.460Z,49.37
2023-03-02T18:52:16.884Z,49.37
2023-03-02T18:54:44.817Z,49.23
2023-03-02T18:57:13.120Z,49.40
2023-03-02T18:59:41.356Z,49.57
2023-03-02T19:02:14.414Z,49.60
2023-03-02T19:04:43.309Z,49.40
2023-03-02T19:07:11.451Z,49.33
2023-03-02T19:09:40.606Z,49.47
2023-03-02T19:12:08.882Z,49.40
2023-03-02T19:14:36.713Z,49.47
2023-03-02T19:17:04.669Z,49.60
2023-03-02T19:19:32.450Z,49.80
2023-03-02T19:22:00.996Z,49.33
2023-03-02T19:24:28.929Z,49.63
2023-03-02T19:26:58.085Z,49.47
2023-03-02T19:29:25.865Z,49.37
2023-03-02T19:31:55.529Z,49.23
2023-03-02T19:34:24.068Z,49.33
2023-03-02T19:36:51.836Z,49.47
2023-03-02T19:39:19.677Z,49.40
2023-03-02T19:41:47.582Z,48.93
2023-03-02T19:44:17.274Z,49.33
2023-03-02T19:46:45.068Z,49.23
2023-03-02T19:49:12.933Z,49.33
2023-03-02T19:51:40.726Z,49.43
2023-03-02T19:54:08.617Z,49.27
2023-03-02T19:56:39.938Z,49.63
2023-03-02T19:59:07.928Z,49.30
2023-03-02T20:01:37.175Z,49.27
2023-03-02T20:04:05.374Z,49.43
2023-03-02T20:06:37.005Z,49.50
2023-03-02T20:09:06.849Z,49.43
2023-03-02T20:11:35.182Z,49.70
2023-03-02T20:14:03.123Z,49.70
2023-03-02T20:16:31.484Z,49.27
2023-03-02T20:19:01.873Z,49.43
2023-03-02T20:21:29.735Z,49.33
2023-03-02T20:23:57.697Z,49.57
2023-03-02T20:26:25.836Z,49.30
2023-03-02T20:28:55.585Z,49.23
2023-03-02T20:31:24.807Z,49.60
2023-03-02T20:33:55.216Z,49.37
2023-03-02T20:36:28.149Z,49.50
2023-03-02T20:38:59.025Z,49.47
2023-03-02T20:41:27.148Z,49.47
2023-03-02T20:43:55.301Z,49.27
2023-03-02T20:46:28.038Z,49.30
2023-03-02T20:48:56.377Z,49.13
2023-03-02T20:51:26.822Z,49.27
2023-03-02T20:53:55.191Z,49.57
2023-03-02T20:56:23.477Z,49.40
2023-03-02T20:58:52.046Z,48.70
2023-03-02T21:01:20.955Z,47.80
2023-03-02T21:03:49.138Z,47.07
2023-03-02T21:06:17.794Z,46.10
2023-03-02T21:08:47.389Z,45.50
2023-03-02T21:11:16.756Z,45.13
2023-03-02T21:13:46.250Z,45.10
2023-03-02T21:16:18.461Z,45.23
2023-03-02T21:18:46.296Z,44.93
2023-03-02T21:21:14.134Z,44.40
2023-03-02T21:23:42.440Z,44.30
2023-03-02T21:26:12.690Z,44.20
2023-03-02T21:28:43.893Z,44.33
2023-03-02T21:31:12.554Z,44.10
2023-03-02T21:33:40.444Z,44.07
2023-03-02T21:36:09.345Z,44.00
2023-03-02T21:38:37.149Z,44.20
2023-03-02T21:41:05.136Z,44.10
2023-03-02T21:43:34.692Z,43.97
2023-03-02T21:46:02.624Z,44.07
2023-03-02T21:48:30.462Z,44.40
2023-03-02T21:50:58.558Z,44.30
2023-03-02T21:53:26.440Z,44.03
2023-03-02T21:55:54.939Z,44.20
2023-03-02T21:58:23.162Z,44.13
2023-03-02T22:00:52.353Z,44.00
2023-03-02T22:03:20.168Z,44.10
2023-03-02T22:05:48.011Z,43.83
2023-03-02T22:08:18.292Z,43.70
2023-03-02T22:10:47.672Z,43.63
2023-03-02T22:13:20.211Z,43.67
2023-03-02T22:15:49.119Z,43.53
2023-03-02T22:18:19.837Z,43.73
2023-03-02T22:20:50.204Z,43.70
2023-03-02T22:23:20.924Z,43.70
2023-03-02T22:25:50.230Z,43.70
2023-03-02T22:28:19.028Z,43.57
2023-03-02T22:30:46.911Z,43.47
2023-03-02T22:33:21.012Z,43.77
2023-03-02T22:35:49.385Z,43.60
2023-03-02T22:38:24.839Z,43.43
2023-03-02T22:40:53.071Z,43.57
2023-03-02T22:43:25.792Z,43.40
2023-03-02T22:45:54.176Z,43.60
2023-03-02T22:48:25.444Z,43.60
2023-03-02T22:50:53.311Z,43.73
2023-03-02T22:53:26.438Z,43.67
2023-03-02T22:56:01.762Z,43.77
2023-03-02T22:58:43.526Z,43.63
2023-03-02T23:01:20.391Z,43.70
2023-03-02T23:03:51.249Z,43.77
2023-03-02T23:06:25.078Z,43.43
2023-03-02T23:08:54.133Z,43.57
2023-03-02T23:11:23.706Z,43.40
2023-03-02T23:13:52.254Z,43.70
2023-03-02T23:16:22.911Z,43.60
2023-03-02T23:18:53.814Z,43.60
2023-03-02T23:21:23.851Z,43.67
2023-03-02T23:23:51.916Z,43.40
2023-03-02T23:26:20.804Z,43.80
2023-03-02T23:28:49.530Z,43.57
2023-03-02T23:31:18.259Z,43.53
2023-03-02T23:33:46.325Z,43.60
2023-03-02T23:36:15.864Z,43.40
2023-03-02T23:38:43.924Z,43.60
2023-03-02T23:41:11.763Z,43.53
2023-03-02T23:43:39.547Z,43.70
2023-03-02T23:46:07.619Z,43.53
2023-03-02T23:48:35.427Z,43.37
2023-03-02T23:51:03.262Z,43.60
2023-03-02T23:53:32.364Z,43.27
2023-03-02T23:56:00.330Z,43.30
2023-03-02T23:58:28.162Z,43.40
